sensor_id;sensor_type;location;lat;lon;timestamp;P1;P2;P0
83597;PMS5003;73565;45.774;15.892;2024-01-30T00:00:14;71;56;34
83597;PMS5003;73565;45.774;15.892;2024-01-30T00:02:14;66;51;34
83597;PMS5003;73565;45.774;15.892;2024-01-30T00:02:38;67;56;35
83597;PMS5003;73565;45.774;15.892;2024-01-30T00:04:08;62;50;33
83597;PMS5003;73565;45.774;15.892;2024-01-30T00:06:08;64;50;33
83597;PMS5003;73565;45.774;15.892;2024-01-30T00:08:08;60;49;31
83597;PMS5003;73565;45.774;15.892;2024-01-30T00:10:08;64;51;31
83597;PMS5003;73565;45.774;15.892;2024-01-30T00:12:08;62;49;31
83597;PMS5003;73565;45.774;15.892;2024-01-30T00:14:08;61;49;33
83597;PMS5003;73565;45.774;15.892;2024-01-30T00:16:08;61;50;33
83597;PMS5003;73565;45.774;15.892;2024-01-30T00:18:08;62;50;30
83597;PMS5003;73565;45.774;15.892;2024-01-30T00:20:41;73;63;38
83597;PMS5003;73565;45.774;15.892;2024-01-30T00:22:07;57;47;28
83597;PMS5003;73565;45.774;15.892;2024-01-30T00:25:27;114;103;61
83597;PMS5003;73565;45.774;15.892;2024-01-30T00:26:38;63;51;33
83597;PMS5003;73565;45.774;15.892;2024-01-30T00:28:38;56;46;31
83597;PMS5003;73565;45.774;15.892;2024-01-30T00:29:02;105;88;55
83597;PMS5003;73565;45.774;15.892;2024-01-30T00:31:00;58;48;29
83597;PMS5003;73565;45.774;15.892;2024-01-30T00:33:00;65;51;33
83597;PMS5003;73565;45.774;15.892;2024-01-30T00:35:00;60;48;29
83597;PMS5003;73565;45.774;15.892;2024-01-30T00:37:00;58;47;29
83597;PMS5003;73565;45.774;15.892;2024-01-30T00:39:00;55;45;28
83597;PMS5003;73565;45.774;15.892;2024-01-30T00:41:00;53;44;29
83597;PMS5003;73565;45.774;15.892;2024-01-30T00:43:00;57;47;29
83597;PMS5003;73565;45.774;15.892;2024-01-30T00:45:01;52;43;31
83597;PMS5003;73565;45.774;15.892;2024-01-30T00:47:00;58;48;28
83597;PMS5003;73565;45.774;15.892;2024-01-30T00:49:19;99;79;49
83597;PMS5003;73565;45.774;15.892;2024-01-30T00:51:11;57;46;31
83597;PMS5003;73565;45.774;15.892;2024-01-30T00:53:30;102;79;48
83597;PMS5003;73565;45.774;15.892;2024-01-30T00:55:08;61;48;31
83597;PMS5003;73565;45.774;15.892;2024-01-30T00:57:08;52;44;28
83597;PMS5003;73565;45.774;15.892;2024-01-30T00:59:08;56;44;28
83597;PMS5003;73565;45.774;15.892;2024-01-30T01:01:08;52;44;27
83597;PMS5003;73565;45.774;15.892;2024-01-30T01:03:08;53;44;30
83597;PMS5003;73565;45.774;15.892;2024-01-30T01:05:08;60;48;31
83597;PMS5003;73565;45.774;15.892;2024-01-30T01:07:08;45;37;22
83597;PMS5003;73565;45.774;15.892;2024-01-30T01:09:08;47;40;27
83597;PMS5003;73565;45.774;15.892;2024-01-30T01:11:42;65;51;32
83597;PMS5003;73565;45.774;15.892;2024-01-30T01:14:50;56;46;28
83597;PMS5003;73565;45.774;15.892;2024-01-30T01:16:50;55;46;28
83597;PMS5003;73565;45.774;15.892;2024-01-30T01:18:50;50;42;27
83597;PMS5003;73565;45.774;15.892;2024-01-30T01:20:50;56;46;30
83597;PMS5003;73565;45.774;15.892;2024-01-30T01:22:50;47;40;23
83597;PMS5003;73565;45.774;15.892;2024-01-30T01:24:50;56;46;29
83597;PMS5003;73565;45.774;15.892;2024-01-30T01:26:50;51;41;29
83597;PMS5003;73565;45.774;15.892;2024-01-30T01:28:50;51;43;28
83597;PMS5003;73565;45.774;15.892;2024-01-30T01:30:50;53;44;28
83597;PMS5003;73565;45.774;15.892;2024-01-30T01:32:50;56;46;30
83597;PMS5003;73565;45.774;15.892;2024-01-30T01:34:50;54;45;29
83597;PMS5003;73565;45.774;15.892;2024-01-30T01:36:50;54;45;28
83597;PMS5003;73565;45.774;15.892;2024-01-30T01:38:50;55;45;29
83597;PMS5003;73565;45.774;15.892;2024-01-30T01:40:50;57;48;30
83597;PMS5003;73565;45.774;15.892;2024-01-30T01:42:50;57;47;30
83597;PMS5003;73565;45.774;15.892;2024-01-30T01:44:50;57;47;31
83597;PMS5003;73565;45.774;15.892;2024-01-30T01:46:50;63;51;33
83597;PMS5003;73565;45.774;15.892;2024-01-30T01:48:50;56;47;30
83597;PMS5003;73565;45.774;15.892;2024-01-30T01:50:50;55;45;28
83597;PMS5003;73565;45.774;15.892;2024-01-30T01:52:50;54;45;30
83597;PMS5003;73565;45.774;15.892;2024-01-30T01:54:50;53;44;27
83597;PMS5003;73565;45.774;15.892;2024-01-30T01:56:50;55;46;30
83597;PMS5003;73565;45.774;15.892;2024-01-30T01:58:50;55;44;30
83597;PMS5003;73565;45.774;15.892;2024-01-30T02:00:50;55;44;31
83597;PMS5003;73565;45.774;15.892;2024-01-30T02:02:50;54;44;30
83597;PMS5003;73565;45.774;15.892;2024-01-30T02:04:50;58;46;27
83597;PMS5003;73565;45.774;15.892;2024-01-30T02:06:50;51;41;26
83597;PMS5003;73565;45.774;15.892;2024-01-30T02:08:50;56;46;29
83597;PMS5003;73565;45.774;15.892;2024-01-30T02:10:50;55;45;29
83597;PMS5003;73565;45.774;15.892;2024-01-30T02:12:50;55;46;31
83597;PMS5003;73565;45.774;15.892;2024-01-30T02:14:50;39;35;25
83597;PMS5003;73565;45.774;15.892;2024-01-30T02:16:50;50;42;26
83597;PMS5003;73565;45.774;15.892;2024-01-30T02:18:50;54;45;29
83597;PMS5003;73565;45.774;15.892;2024-01-30T02:20:50;57;47;28
83597;PMS5003;73565;45.774;15.892;2024-01-30T02:22:50;49;40;24
83597;PMS5003;73565;45.774;15.892;2024-01-30T02:24:50;52;42;26
83597;PMS5003;73565;45.774;15.892;2024-01-30T02:26:50;56;46;31
83597;PMS5003;73565;45.774;15.892;2024-01-30T02:28:50;57;47;30
83597;PMS5003;73565;45.774;15.892;2024-01-30T02:30:50;54;45;29
83597;PMS5003;73565;45.774;15.892;2024-01-30T02:32:50;54;45;27
83597;PMS5003;73565;45.774;15.892;2024-01-30T02:34:50;49;42;27
83597;PMS5003;73565;45.774;15.892;2024-01-30T02:36:50;55;45;30
83597;PMS5003;73565;45.774;15.892;2024-01-30T02:38:50;53;44;28
83597;PMS5003;73565;45.774;15.892;2024-01-30T02:40:50;53;44;29
83597;PMS5003;73565;45.774;15.892;2024-01-30T02:42:50;53;45;30
83597;PMS5003;73565;45.774;15.892;2024-01-30T02:44:50;56;45;28
83597;PMS5003;73565;45.774;15.892;2024-01-30T02:46:50;55;45;30
83597;PMS5003;73565;45.774;15.892;2024-01-30T02:48:50;52;43;29
83597;PMS5003;73565;45.774;15.892;2024-01-30T02:50:50;54;44;29
83597;PMS5003;73565;45.774;15.892;2024-01-30T02:52:50;55;44;28
83597;PMS5003;73565;45.774;15.892;2024-01-30T02:54:50;57;45;30
83597;PMS5003;73565;45.774;15.892;2024-01-30T02:56:50;36;32;22
83597;PMS5003;73565;45.774;15.892;2024-01-30T02:58:50;56;45;28
83597;PMS5003;73565;45.774;15.892;2024-01-30T03:00:50;56;46;31
83597;PMS5003;73565;45.774;15.892;2024-01-30T03:02:50;50;42;29
83597;PMS5003;73565;45.774;15.892;2024-01-30T03:04:50;55;46;28
83597;PMS5003;73565;45.774;15.892;2024-01-30T03:06:50;60;48;30
83597;PMS5003;73565;45.774;15.892;2024-01-30T03:08:50;58;47;30
83597;PMS5003;73565;45.774;15.892;2024-01-30T03:10:50;60;46;31
83597;PMS5003;73565;45.774;15.892;2024-01-30T03:12:50;52;43;27
83597;PMS5003;73565;45.774;15.892;2024-01-30T03:14:50;46;40;25
83597;PMS5003;73565;45.774;15.892;2024-01-30T03:16:50;56;44;28
83597;PMS5003;73565;45.774;15.892;2024-01-30T03:18:50;42;36;23
83597;PMS5003;73565;45.774;15.892;2024-01-30T03:20:50;48;41;27
83597;PMS5003;73565;45.774;15.892;2024-01-30T03:22:50;53;44;29
83597;PMS5003;73565;45.774;15.892;2024-01-30T03:24:50;55;45;29
83597;PMS5003;73565;45.774;15.892;2024-01-30T03:26:50;50;42;28
83597;PMS5003;73565;45.774;15.892;2024-01-30T03:28:50;56;46;28
83597;PMS5003;73565;45.774;15.892;2024-01-30T03:30:50;51;42;30
83597;PMS5003;73565;45.774;15.892;2024-01-30T03:32:50;51;43;26
83597;PMS5003;73565;45.774;15.892;2024-01-30T03:34:50;49;39;26
83597;PMS5003;73565;45.774;15.892;2024-01-30T03:36:50;44;37;24
83597;PMS5003;73565;45.774;15.892;2024-01-30T03:38:50;50;41;28
83597;PMS5003;73565;45.774;15.892;2024-01-30T03:40:50;52;41;28
83597;PMS5003;73565;45.774;15.892;2024-01-30T03:42:50;54;45;29
83597;PMS5003;73565;45.774;15.892;2024-01-30T03:44:50;48;39;25
83597;PMS5003;73565;45.774;15.892;2024-01-30T03:46:50;44;38;27
83597;PMS5003;73565;45.774;15.892;2024-01-30T03:48:50;49;42;29
83597;PMS5003;73565;45.774;15.892;2024-01-30T03:50:50;49;42;28
83597;PMS5003;73565;45.774;15.892;2024-01-30T03:52:50;47;40;27
83597;PMS5003;73565;45.774;15.892;2024-01-30T03:56:27;43;38;27
83597;PMS5003;73565;45.774;15.892;2024-01-30T03:58:27;52;43;28
83597;PMS5003;73565;45.774;15.892;2024-01-30T04:00:27;52;44;29
83597;PMS5003;73565;45.774;15.892;2024-01-30T04:02:27;53;44;28
83597;PMS5003;73565;45.774;15.892;2024-01-30T04:04:27;55;45;28
83597;PMS5003;73565;45.774;15.892;2024-01-30T04:06:27;53;44;30
83597;PMS5003;73565;45.774;15.892;2024-01-30T04:06:59;50;42;27
83597;PMS5003;73565;45.774;15.892;2024-01-30T04:08:18;45;39;24
83597;PMS5003;73565;45.774;15.892;2024-01-30T04:10:18;52;43;28
83597;PMS5003;73565;45.774;15.892;2024-01-30T04:12:18;49;41;27
83597;PMS5003;73565;45.774;15.892;2024-01-30T04:14:18;47;41;28
83597;PMS5003;73565;45.774;15.892;2024-01-30T04:16:23;52;42;28
83597;PMS5003;73565;45.774;15.892;2024-01-30T04:18:18;45;38;24
83597;PMS5003;73565;45.774;15.892;2024-01-30T04:20:18;52;42;28
83597;PMS5003;73565;45.774;15.892;2024-01-30T04:22:17;52;42;27
83597;PMS5003;73565;45.774;15.892;2024-01-30T04:24:18;45;38;25
83597;PMS5003;73565;45.774;15.892;2024-01-30T04:26:18;50;41;27
83597;PMS5003;73565;45.774;15.892;2024-01-30T04:28:18;47;39;27
83597;PMS5003;73565;45.774;15.892;2024-01-30T04:31:12;51;42;26
83597;PMS5003;73565;45.774;15.892;2024-01-30T04:32:26;43;36;24
83597;PMS5003;73565;45.774;15.892;2024-01-30T04:34:26;41;36;24
83597;PMS5003;73565;45.774;15.892;2024-01-30T04:36:26;41;35;20
83597;PMS5003;73565;45.774;15.892;2024-01-30T04:38:26;45;38;23
83597;PMS5003;73565;45.774;15.892;2024-01-30T04:40:26;44;38;25
83597;PMS5003;73565;45.774;15.892;2024-01-30T04:42:26;46;39;26
83597;PMS5003;73565;45.774;15.892;2024-01-30T04:44:26;37;33;24
83597;PMS5003;73565;45.774;15.892;2024-01-30T04:46:26;41;36;25
83597;PMS5003;73565;45.774;15.892;2024-01-30T04:48:26;46;39;23
83597;PMS5003;73565;45.774;15.892;2024-01-30T04:50:26;46;39;25
83597;PMS5003;73565;45.774;15.892;2024-01-30T04:52:26;47;40;27
83597;PMS5003;73565;45.774;15.892;2024-01-30T04:55:20;52;44;28
83597;PMS5003;73565;45.774;15.892;2024-01-30T04:56:47;50;40;27
83597;PMS5003;73565;45.774;15.892;2024-01-30T04:58:47;47;41;23
83597;PMS5003;73565;45.774;15.892;2024-01-30T05:00:47;51;43;26
83597;PMS5003;73565;45.774;15.892;2024-01-30T05:02:47;50;42;26
83597;PMS5003;73565;45.774;15.892;2024-01-30T05:04:47;51;43;27
83597;PMS5003;73565;45.774;15.892;2024-01-30T05:06:47;42;36;26
83597;PMS5003;73565;45.774;15.892;2024-01-30T05:08:47;45;38;24
83597;PMS5003;73565;45.774;15.892;2024-01-30T05:10:47;46;40;24
83597;PMS5003;73565;45.774;15.892;2024-01-30T05:12:47;50;42;27
83597;PMS5003;73565;45.774;15.892;2024-01-30T05:17:19;51;41;26
83597;PMS5003;73565;45.774;15.892;2024-01-30T05:21:26;45;37;24
83597;PMS5003;73565;45.774;15.892;2024-01-30T05:23:26;41;34;26
83597;PMS5003;73565;45.774;15.892;2024-01-30T05:25:26;44;37;24
83597;PMS5003;73565;45.774;15.892;2024-01-30T05:27:26;38;32;24
83597;PMS5003;73565;45.774;15.892;2024-01-30T05:29:26;39;32;24
83597;PMS5003;73565;45.774;15.892;2024-01-30T05:31:26;43;38;24
83597;PMS5003;73565;45.774;15.892;2024-01-30T05:33:26;42;36;25
83597;PMS5003;73565;45.774;15.892;2024-01-30T05:35:26;46;38;25
83597;PMS5003;73565;45.774;15.892;2024-01-30T05:37:26;45;37;24
83597;PMS5003;73565;45.774;15.892;2024-01-30T05:39:26;42;36;22
83597;PMS5003;73565;45.774;15.892;2024-01-30T05:41:26;37;34;22
83597;PMS5003;73565;45.774;15.892;2024-01-30T05:43:26;37;33;23
83597;PMS5003;73565;45.774;15.892;2024-01-30T05:45:26;52;43;28
83597;PMS5003;73565;45.774;15.892;2024-01-30T05:47:26;51;43;27
83597;PMS5003;73565;45.774;15.892;2024-01-30T05:49:26;47;40;26
83597;PMS5003;73565;45.774;15.892;2024-01-30T05:51:26;52;43;28
83597;PMS5003;73565;45.774;15.892;2024-01-30T05:53:26;46;39;26
83597;PMS5003;73565;45.774;15.892;2024-01-30T05:56:06;56;46;31
83597;PMS5003;73565;45.774;15.892;2024-01-30T05:58:03;44;38;23
83597;PMS5003;73565;45.774;15.892;2024-01-30T06:00:04;47;39;26
83597;PMS5003;73565;45.774;15.892;2024-01-30T06:02:03;49;41;27
83597;PMS5003;73565;45.774;15.892;2024-01-30T06:04:03;50;42;27
83597;PMS5003;73565;45.774;15.892;2024-01-30T06:06:03;36;33;20
83597;PMS5003;73565;45.774;15.892;2024-01-30T06:08:04;51;42;26
83597;PMS5003;73565;45.774;15.892;2024-01-30T06:10:04;51;41;27
83597;PMS5003;73565;45.774;15.892;2024-01-30T06:12:04;49;41;26
83597;PMS5003;73565;45.774;15.892;2024-01-30T06:14:03;49;41;26
83597;PMS5003;73565;45.774;15.892;2024-01-30T06:16:04;50;41;28
83597;PMS5003;73565;45.774;15.892;2024-01-30T06:18:04;53;42;28
83597;PMS5003;73565;45.774;15.892;2024-01-30T06:20:04;51;43;27
83597;PMS5003;73565;45.774;15.892;2024-01-30T06:22:03;41;36;26
83597;PMS5003;73565;45.774;15.892;2024-01-30T06:24:03;50;42;25
83597;PMS5003;73565;45.774;15.892;2024-01-30T06:26:03;49;39;27
83597;PMS5003;73565;45.774;15.892;2024-01-30T06:28:04;39;34;24
83597;PMS5003;73565;45.774;15.892;2024-01-30T06:30:04;52;42;26
83597;PMS5003;73565;45.774;15.892;2024-01-30T06:32:04;53;44;28
83597;PMS5003;73565;45.774;15.892;2024-01-30T06:34:03;50;42;27
83597;PMS5003;73565;45.774;15.892;2024-01-30T06:36:03;43;36;24
83597;PMS5003;73565;45.774;15.892;2024-01-30T06:38:03;48;40;26
83597;PMS5003;73565;45.774;15.892;2024-01-30T06:40:04;43;36;24
83597;PMS5003;73565;45.774;15.892;2024-01-30T06:42:03;50;40;26
83597;PMS5003;73565;45.774;15.892;2024-01-30T06:44:03;53;44;27
83597;PMS5003;73565;45.774;15.892;2024-01-30T06:46:03;52;43;27
83597;PMS5003;73565;45.774;15.892;2024-01-30T06:48:03;53;44;27
83597;PMS5003;73565;45.774;15.892;2024-01-30T06:50:03;49;42;27
83597;PMS5003;73565;45.774;15.892;2024-01-30T06:52:04;48;41;28
83597;PMS5003;73565;45.774;15.892;2024-01-30T06:54:03;50;42;28
83597;PMS5003;73565;45.774;15.892;2024-01-30T06:56:04;54;45;29
83597;PMS5003;73565;45.774;15.892;2024-01-30T06:58:03;41;36;26
83597;PMS5003;73565;45.774;15.892;2024-01-30T07:00:04;52;42;26
83597;PMS5003;73565;45.774;15.892;2024-01-30T07:02:03;36;33;20
83597;PMS5003;73565;45.774;15.892;2024-01-30T07:04:03;44;38;26
83597;PMS5003;73565;45.774;15.892;2024-01-30T07:06:03;58;46;29
83597;PMS5003;73565;45.774;15.892;2024-01-30T07:08:03;58;48;31
83597;PMS5003;73565;45.774;15.892;2024-01-30T07:10:04;45;38;21
83597;PMS5003;73565;45.774;15.892;2024-01-30T07:12:03;53;45;28
83597;PMS5003;73565;45.774;15.892;2024-01-30T07:14:03;57;48;31
83597;PMS5003;73565;45.774;15.892;2024-01-30T07:16:03;54;45;30
83597;PMS5003;73565;45.774;15.892;2024-01-30T07:18:03;58;48;30
83597;PMS5003;73565;45.774;15.892;2024-01-30T07:18:43;55;45;30
83597;PMS5003;73565;45.774;15.892;2024-01-30T07:20:28;45;38;25
83597;PMS5003;73565;45.774;15.892;2024-01-30T07:22:28;58;46;29
83597;PMS5003;73565;45.774;15.892;2024-01-30T07:24:28;51;44;30
83597;PMS5003;73565;45.774;15.892;2024-01-30T07:26:28;52;44;29
83597;PMS5003;73565;45.774;15.892;2024-01-30T07:28:28;52;43;29
83597;PMS5003;73565;45.774;15.892;2024-01-30T07:30:28;58;48;30
83597;PMS5003;73565;45.774;15.892;2024-01-30T07:32:28;58;47;31
83597;PMS5003;73565;45.774;15.892;2024-01-30T07:34:28;53;44;28
83597;PMS5003;73565;45.774;15.892;2024-01-30T07:36:28;52;44;29
83597;PMS5003;73565;45.774;15.892;2024-01-30T07:39:26;62;49;33
83597;PMS5003;73565;45.774;15.892;2024-01-30T07:40:38;53;44;29
83597;PMS5003;73565;45.774;15.892;2024-01-30T07:42:38;53;45;28
83597;PMS5003;73565;45.774;15.892;2024-01-30T07:44:38;52;43;27
83597;PMS5003;73565;45.774;15.892;2024-01-30T07:46:38;49;40;27
83597;PMS5003;73565;45.774;15.892;2024-01-30T07:49:39;48;41;27
83597;PMS5003;73565;45.774;15.892;2024-01-30T07:50:41;44;38;24
83597;PMS5003;73565;45.774;15.892;2024-01-30T07:52:42;40;34;25
83597;PMS5003;73565;45.774;15.892;2024-01-30T07:54:41;47;39;26
83597;PMS5003;73565;45.774;15.892;2024-01-30T07:56:41;45;38;26
83597;PMS5003;73565;45.774;15.892;2024-01-30T07:58:41;49;41;26
83597;PMS5003;73565;45.774;15.892;2024-01-30T08:00:41;38;33;23
83597;PMS5003;73565;45.774;15.892;2024-01-30T08:02:41;48;40;27
83597;PMS5003;73565;45.774;15.892;2024-01-30T08:04:41;42;36;26
83597;PMS5003;73565;45.774;15.892;2024-01-30T08:06:41;30;29;22
83597;PMS5003;73565;45.774;15.892;2024-01-30T08:08:41;43;35;22
83597;PMS5003;73565;45.774;15.892;2024-01-30T08:10:41;48;41;24
83597;PMS5003;73565;45.774;15.892;2024-01-30T08:12:41;46;40;24
83597;PMS5003;73565;45.774;15.892;2024-01-30T08:14:41;43;36;23
83597;PMS5003;73565;45.774;15.892;2024-01-30T08:16:41;47;40;25
83597;PMS5003;73565;45.774;15.892;2024-01-30T08:18:41;40;35;24
83597;PMS5003;73565;45.774;15.892;2024-01-30T08:20:41;47;38;26
83597;PMS5003;73565;45.774;15.892;2024-01-30T08:22:42;46;40;24
83597;PMS5003;73565;45.774;15.892;2024-01-30T08:24:43;42;36;24
83597;PMS5003;73565;45.774;15.892;2024-01-30T08:26:41;47;40;25
83597;PMS5003;73565;45.774;15.892;2024-01-30T08:28:41;44;38;24
83597;PMS5003;73565;45.774;15.892;2024-01-30T08:30:41;42;36;23
83597;PMS5003;73565;45.774;15.892;2024-01-30T08:32:41;43;36;23
83597;PMS5003;73565;45.774;15.892;2024-01-30T08:34:41;43;36;23
83597;PMS5003;73565;45.774;15.892;2024-01-30T08:36:41;48;41;25
83597;PMS5003;73565;45.774;15.892;2024-01-30T08:38:41;42;36;23
83597;PMS5003;73565;45.774;15.892;2024-01-30T08:40:41;47;39;24
83597;PMS5003;73565;45.774;15.892;2024-01-30T08:42:41;41;35;24
83597;PMS5003;73565;45.774;15.892;2024-01-30T08:44:41;45;38;26
83597;PMS5003;73565;45.774;15.892;2024-01-30T08:46:41;45;38;28
83597;PMS5003;73565;45.774;15.892;2024-01-30T08:48:41;41;35;21
83597;PMS5003;73565;45.774;15.892;2024-01-30T08:50:41;41;34;25
83597;PMS5003;73565;45.774;15.892;2024-01-30T08:52:43;48;41;26
83597;PMS5003;73565;45.774;15.892;2024-01-30T08:54:41;52;44;28
83597;PMS5003;73565;45.774;15.892;2024-01-30T08:56:41;39;35;25
83597;PMS5003;73565;45.774;15.892;2024-01-30T08:58:41;48;41;27
83597;PMS5003;73565;45.774;15.892;2024-01-30T09:00:13;47;40;28
83597;PMS5003;73565;45.774;15.892;2024-01-30T09:01:18;50;43;28
83597;PMS5003;73565;45.774;15.892;2024-01-30T09:03:18;44;38;24
83597;PMS5003;73565;45.774;15.892;2024-01-30T09:05:18;54;45;28
83597;PMS5003;73565;45.774;15.892;2024-01-30T09:07:18;47;38;25
83597;PMS5003;73565;45.774;15.892;2024-01-30T09:09:18;41;35;24
83597;PMS5003;73565;45.774;15.892;2024-01-30T09:11:18;38;34;22
83597;PMS5003;73565;45.774;15.892;2024-01-30T09:13:18;44;37;25
83597;PMS5003;73565;45.774;15.892;2024-01-30T09:15:18;48;41;27
83597;PMS5003;73565;45.774;15.892;2024-01-30T09:17:18;43;36;23
83597;PMS5003;73565;45.774;15.892;2024-01-30T09:19:20;45;38;26
83597;PMS5003;73565;45.774;15.892;2024-01-30T09:20:45;47;39;25
83597;PMS5003;73565;45.774;15.892;2024-01-30T09:22:04;45;37;25
83597;PMS5003;73565;45.774;15.892;2024-01-30T09:24:07;46;38;24
83597;PMS5003;73565;45.774;15.892;2024-01-30T09:26:20;42;37;25
83597;PMS5003;73565;45.774;15.892;2024-01-30T09:28:05;47;40;26
83597;PMS5003;73565;45.774;15.892;2024-01-30T09:30:05;44;36;24
83597;PMS5003;73565;45.774;15.892;2024-01-30T09:32:05;45;37;25
83597;PMS5003;73565;45.774;15.892;2024-01-30T09:34:07;47;40;25
83597;PMS5003;73565;45.774;15.892;2024-01-30T09:36:08;47;40;26
83597;PMS5003;73565;45.774;15.892;2024-01-30T09:38:16;48;39;26
83597;PMS5003;73565;45.774;15.892;2024-01-30T09:40:05;47;40;26
83597;PMS5003;73565;45.774;15.892;2024-01-30T09:42:05;48;41;24
83597;PMS5003;73565;45.774;15.892;2024-01-30T09:44:04;47;40;27
83597;PMS5003;73565;45.774;15.892;2024-01-30T09:46:04;46;38;27
83597;PMS5003;73565;45.774;15.892;2024-01-30T09:48:05;55;45;29
83597;PMS5003;73565;45.774;15.892;2024-01-30T09:50:05;48;40;26
83597;PMS5003;73565;45.774;15.892;2024-01-30T09:52:05;55;45;28
83597;PMS5003;73565;45.774;15.892;2024-01-30T09:54:05;55;46;29
83597;PMS5003;73565;45.774;15.892;2024-01-30T09:56:05;55;45;28
83597;PMS5003;73565;45.774;15.892;2024-01-30T09:58:05;52;42;28
83597;PMS5003;73565;45.774;15.892;2024-01-30T10:00:05;54;41;28
83597;PMS5003;73565;45.774;15.892;2024-01-30T10:02:04;62;50;32
83597;PMS5003;73565;45.774;15.892;2024-01-30T10:04:04;57;46;31
83597;PMS5003;73565;45.774;15.892;2024-01-30T10:06:05;56;46;33
83597;PMS5003;73565;45.774;15.892;2024-01-30T10:08:05;58;47;31
83597;PMS5003;73565;45.774;15.892;2024-01-30T10:10:05;57;46;33
83597;PMS5003;73565;45.774;15.892;2024-01-30T10:12:05;57;47;32
83597;PMS5003;73565;45.774;15.892;2024-01-30T10:14:04;58;48;31
83597;PMS5003;73565;45.774;15.892;2024-01-30T10:16:05;58;48;31
83597;PMS5003;73565;45.774;15.892;2024-01-30T10:18:05;61;49;31
83597;PMS5003;73565;45.774;15.892;2024-01-30T10:20:05;62;50;32
83597;PMS5003;73565;45.774;15.892;2024-01-30T10:22:04;65;52;33
83597;PMS5003;73565;45.774;15.892;2024-01-30T10:24:05;64;51;33
83597;PMS5003;73565;45.774;15.892;2024-01-30T10:26:04;67;51;34
83597;PMS5003;73565;45.774;15.892;2024-01-30T10:28:05;62;50;30
83597;PMS5003;73565;45.774;15.892;2024-01-30T10:30:05;61;50;32
83597;PMS5003;73565;45.774;15.892;2024-01-30T10:32:05;67;54;34
83597;PMS5003;73565;45.774;15.892;2024-01-30T10:34:04;64;52;34
83597;PMS5003;73565;45.774;15.892;2024-01-30T10:36:05;66;53;34
83597;PMS5003;73565;45.774;15.892;2024-01-30T10:38:04;65;53;33
83597;PMS5003;73565;45.774;15.892;2024-01-30T10:40:05;67;53;33
83597;PMS5003;73565;45.774;15.892;2024-01-30T10:42:05;65;53;33
83597;PMS5003;73565;45.774;15.892;2024-01-30T10:44:08;64;51;34
83597;PMS5003;73565;45.774;15.892;2024-01-30T10:46:06;64;51;32
83597;PMS5003;73565;45.774;15.892;2024-01-30T10:48:05;65;53;34
83597;PMS5003;73565;45.774;15.892;2024-01-30T10:52:59;66;52;35
83597;PMS5003;73565;45.774;15.892;2024-01-30T10:54:59;64;51;34
83597;PMS5003;73565;45.774;15.892;2024-01-30T10:56:59;64;51;29
83597;PMS5003;73565;45.774;15.892;2024-01-30T10:58:59;69;55;36
83597;PMS5003;73565;45.774;15.892;2024-01-30T11:00:59;62;50;31
83597;PMS5003;73565;45.774;15.892;2024-01-30T11:02:59;59;48;32
83597;PMS5003;73565;45.774;15.892;2024-01-30T11:04:59;59;48;33
83597;PMS5003;73565;45.774;15.892;2024-01-30T11:09:19;67;55;34
83597;PMS5003;73565;45.774;15.892;2024-01-30T11:11:19;62;51;33
83597;PMS5003;73565;45.774;15.892;2024-01-30T11:13:19;62;50;33
83597;PMS5003;73565;45.774;15.892;2024-01-30T11:15:19;62;50;33
83597;PMS5003;73565;45.774;15.892;2024-01-30T11:17:19;67;51;33
83597;PMS5003;73565;45.774;15.892;2024-01-30T11:19:21;63;51;33
83597;PMS5003;73565;45.774;15.892;2024-01-30T11:21:19;60;49;33
83597;PMS5003;73565;45.774;15.892;2024-01-30T11:23:21;60;48;33
83597;PMS5003;73565;45.774;15.892;2024-01-30T11:25:20;62;50;33
83597;PMS5003;73565;45.774;15.892;2024-01-30T11:27:19;65;53;33
83597;PMS5003;73565;45.774;15.892;2024-01-30T11:29:20;55;46;32
83597;PMS5003;73565;45.774;15.892;2024-01-30T11:31:22;64;51;33
83597;PMS5003;73565;45.774;15.892;2024-01-30T11:33:16;67;53;34
83597;PMS5003;73565;45.774;15.892;2024-01-30T11:34:33;63;52;33
83597;PMS5003;73565;45.774;15.892;2024-01-30T11:36:33;58;47;31
83597;PMS5003;73565;45.774;15.892;2024-01-30T11:38:33;60;47;31
83597;PMS5003;73565;45.774;15.892;2024-01-30T11:40:33;65;51;32
83597;PMS5003;73565;45.774;15.892;2024-01-30T11:42:33;57;47;30
83597;PMS5003;73565;45.774;15.892;2024-01-30T11:44:33;55;46;30
83597;PMS5003;73565;45.774;15.892;2024-01-30T11:46:33;47;40;28
83597;PMS5003;73565;45.774;15.892;2024-01-30T11:48:33;53;44;28
83597;PMS5003;73565;45.774;15.892;2024-01-30T11:50:33;51;43;30
83597;PMS5003;73565;45.774;15.892;2024-01-30T11:52:33;59;48;31
83597;PMS5003;73565;45.774;15.892;2024-01-30T11:54:33;47;40;29
83597;PMS5003;73565;45.774;15.892;2024-01-30T11:56:33;52;42;26
83597;PMS5003;73565;45.774;15.892;2024-01-30T11:58:33;40;35;23
83597;PMS5003;73565;45.774;15.892;2024-01-30T12:00:33;40;35;23
83597;PMS5003;73565;45.774;15.892;2024-01-30T12:02:33;31;27;22
83597;PMS5003;73565;45.774;15.892;2024-01-30T12:04:33;34;30;18
83597;PMS5003;73565;45.774;15.892;2024-01-30T12:06:33;28;28;18
83597;PMS5003;73565;45.774;15.892;2024-01-30T12:08:33;28;26;17
83597;PMS5003;73565;45.774;15.892;2024-01-30T12:10:33;26;25;16
83597;PMS5003;73565;45.774;15.892;2024-01-30T12:12:33;32;30;20
83597;PMS5003;73565;45.774;15.892;2024-01-30T12:14:33;27;27;18
83597;PMS5003;73565;45.774;15.892;2024-01-30T12:16:33;28;27;20
83597;PMS5003;73565;45.774;15.892;2024-01-30T12:18:33;35;32;22
83597;PMS5003;73565;45.774;15.892;2024-01-30T12:20:33;35;31;20
83597;PMS5003;73565;45.774;15.892;2024-01-30T12:22:33;36;33;22
83597;PMS5003;73565;45.774;15.892;2024-01-30T12:24:33;32;29;19
83597;PMS5003;73565;45.774;15.892;2024-01-30T12:26:33;27;25;16
83597;PMS5003;73565;45.774;15.892;2024-01-30T12:28:33;33;32;20
83597;PMS5003;73565;45.774;15.892;2024-01-30T12:30:34;34;30;22
83597;PMS5003;73565;45.774;15.892;2024-01-30T12:32:33;33;30;18
83597;PMS5003;73565;45.774;15.892;2024-01-30T12:34:33;31;28;20
83597;PMS5003;73565;45.774;15.892;2024-01-30T12:38:55;41;35;23
83597;PMS5003;73565;45.774;15.892;2024-01-30T12:40:57;44;37;23
83597;PMS5003;73565;45.774;15.892;2024-01-30T12:42:55;36;33;23